createdAt,value
2023-05-09T00:00:38.110Z,20.17
2023-05-09T00:03:06.031Z,18.88
2023-05-09T00:05:35.896Z,18.92
2023-05-09T00:08:03.508Z,18.45
2023-05-09T00:10:30.991Z,19.35
2023-05-09T00:12:59.691Z,19.83
2023-05-09T00:15:27.262Z,19.67
2023-05-09T00:17:54.643Z,19.63
2023-05-09T00:20:22.148Z,19.08
2023-05-09T00:22:49.473Z,19.58
2023-05-09T00:25:17.241Z,18.98
2023-05-09T00:27:44.820Z,19.95
2023-05-09T00:30:12.382Z,18.75
2023-05-09T00:32:41.591Z,19.23
2023-05-09T00:35:10.197Z,19.55
2023-05-09T00:37:37.763Z,18.88
2023-05-09T00:40:07.506Z,19.38
2023-05-09T00:42:35.605Z,20.17
2023-05-09T00:45:03.372Z,19.25
2023-05-09T00:47:31.011Z,20.30
2023-05-09T00:49:59.405Z,19.00
2023-05-09T00:52:27.012Z,19.90
2023-05-09T00:54:56.187Z,19.30
2023-05-09T00:57:24.282Z,19.63
2023-05-09T00:59:51.868Z,20.60
2023-05-09T01:02:19.751Z,20.02
2023-05-09T01:04:47.484Z,18.27
2023-05-09T01:07:23.263Z,19.75
2023-05-09T01:10:05.650Z,19.73
2023-05-09T01:12:58.950Z,19.20
2023-05-09T01:15:51.767Z,18.83
2023-05-09T01:18:29.539Z,19.70
2023-05-09T01:21:08.887Z,19.73
2023-05-09T01:23:45.473Z,18.98
2023-05-09T01:26:44.678Z,17.73
2023-05-09T01:29:25.687Z,19.08
2023-05-09T01:31:55.707Z,19.48
2023-05-09T01:34:26.716Z,18.50
2023-05-09T01:36:58.539Z,18.63
2023-05-09T01:39:28.395Z,17.30
2023-05-09T01:42:03.998Z,17.08
2023-05-09T01:44:38.330Z,16.20
2023-05-09T01:47:07.755Z,15.90
2023-05-09T01:49:39.924Z,15.43
2023-05-09T01:52:14.021Z,15.65
2023-05-09T01:54:42.914Z,16.27
2023-05-09T01:57:12.283Z,15.60
2023-05-09T01:59:42.346Z,15.70
2023-05-09T02:02:10.448Z,15.07
2023-05-09T02:04:39.826Z,16.10
2023-05-09T02:07:08.328Z,14.77
2023-05-09T02:09:35.945Z,16.00
2023-05-09T02:12:04.742Z,15.77
2023-05-09T02:14:32.630Z,15.98
2023-05-09T02:17:06.287Z,16.45
2023-05-09T02:19:35.672Z,14.97
2023-05-09T02:22:05.153Z,16.52
2023-05-09T02:24:34.510Z,16.70
2023-05-09T02:27:04.374Z,15.95
2023-05-09T02:29:40.711Z,15.98
2023-05-09T02:32:12.560Z,16.27
2023-05-09T02:34:42.008Z,16.83
2023-05-09T02:37:10.383Z,16.40
2023-05-09T02:39:38.038Z,17.25
2023-05-09T02:42:08.303Z,15.05
2023-05-09T02:44:36.801Z,15.93
2023-05-09T02:47:05.428Z,16.38
2023-05-09T02:49:34.651Z,16.05
2023-05-09T02:52:05.262Z,15.15
2023-05-09T02:54:32.676Z,16.23
2023-05-09T02:57:00.133Z,15.40
2023-05-09T02:59:27.600Z,15.25
2023-05-09T03:01:55.784Z,15.35
2023-05-09T03:04:23.257Z,15.48
2023-05-09T03:06:50.887Z,15.98
2023-05-09T03:09:18.262Z,16.33
2023-05-09T03:11:45.649Z,14.63
2023-05-09T03:14:14.869Z,15.75
2023-05-09T03:16:42.216Z,14.43
2023-05-09T03:19:19.533Z,14.52
2023-05-09T03:21:46.944Z,14.25
2023-05-09T03:24:14.362Z,14.95
2023-05-09T03:26:41.752Z,13.13
2023-05-09T03:29:10.235Z,13.50
2023-05-09T03:31:39.003Z,15.13
2023-05-09T03:34:06.761Z,13.85
2023-05-09T03:36:34.374Z,13.63
2023-05-09T03:39:02.621Z,13.38
2023-05-09T03:41:30.585Z,13.02
2023-05-09T03:43:57.980Z,13.55
2023-05-09T03:46:25.438Z,13.80
2023-05-09T03:48:53.245Z,13.20
2023-05-09T03:51:21.096Z,12.90
2023-05-09T03:53:49.411Z,12.98
2023-05-09T03:56:17.293Z,12.48
2023-05-09T03:58:50.202Z,12.60
2023-05-09T04:01:18.330Z,12.85
2023-05-09T04:03:46.836Z,13.70
2023-05-09T04:06:15.765Z,13.65
2023-05-09T04:08:45.075Z,12.90
2023-05-09T04:11:12.745Z,13.50
2023-05-09T04:13:43.277Z,14.02
2023-05-09T04:16:22.750Z,13.38
2023-05-09T04:18:50.264Z,13.05
2023-05-09T04:21:17.717Z,13.38
2023-05-09T04:23:48.699Z,12.77
2023-05-09T04:26:18.316Z,13.57
2023-05-09T04:28:48.766Z,13.43
2023-05-09T04:31:17.858Z,12.85
2023-05-09T04:33:48.832Z,13.40
2023-05-09T04:36:17.123Z,14.15
2023-05-09T04:38:47.967Z,12.60
2023-05-09T04:41:19.559Z,13.32
2023-05-09T04:43:46.934Z,13.80
2023-05-09T04:46:14.318Z,12.32
2023-05-09T04:48:42.601Z,13.02
2023-05-09T04:51:10.040Z,13.05
2023-05-09T04:53:37.481Z,12.93
2023-05-09T04:56:05.583Z,12.02
2023-05-09T04:58:34.474Z,12.57
2023-05-09T05:01:02.464Z,12.18
2023-05-09T05:03:29.898Z,11.95
2023-05-09T05:05:57.457Z,12.70
2023-05-09T05:08:26.072Z,13.00
2023-05-09T05:10:54.308Z,12.30
2023-05-09T05:13:21.840Z,12.98
2023-05-09T05:15:54.147Z,11.95
2023-05-09T05:18:22.474Z,12.30
2023-05-09T05:20:49.918Z,12.65
2023-05-09T05:23:18.331Z,12.15
2023-05-09T05:25:45.870Z,11.77
2023-05-09T05:28:14.310Z,10.85
2023-05-09T05:30:42.148Z,12.00
2023-05-09T05:33:09.642Z,11.07
2023-05-09T05:35:37.052Z,10.50
2023-05-09T05:38:04.661Z,11.02
2023-05-09T05:40:33.219Z,12.02
2023-05-09T05:43:03.640Z,10.18
2023-05-09T05:45:32.581Z,11.60
2023-05-09T05:48:02.750Z,11.05
2023-05-09T05:50:31.902Z,10.38
2023-05-09T05:52:59.485Z,11.02
2023-05-09T05:55:26.887Z,10.88
2023-05-09T05:57:54.380Z,10.35
2023-05-09T06:00:21.856Z,11.15
2023-05-09T06:02:56.258Z,10.23
2023-05-09T06:05:33.793Z,10.48
2023-05-09T06:08:01.241Z,10.45
2023-05-09T06:10:28.666Z,11.02
2023-05-09T06:12:56.223Z,9.60
2023-05-09T06:15:23.753Z,10.73
2023-05-09T06:17:51.597Z,10.85
2023-05-09T06:20:19.025Z,10.98
2023-05-09T06:22:46.437Z,10.93
2023-05-09T06:25:14.019Z,10.05
2023-05-09T06:27:42.399Z,10.73
2023-05-09T06:32:40.450Z,10.15
2023-05-09T06:35:08.117Z,10.65
2023-05-09T06:37:35.608Z,10.98
2023-05-09T06:40:03.403Z,10.43
2023-05-09T06:42:32.641Z,10.10
2023-05-09T06:45:00.104Z,10.77
2023-05-09T06:47:27.580Z,10.70
2023-05-09T06:49:55.096Z,11.20
2023-05-09T06:52:22.546Z,11.65
2023-05-09T06:54:49.886Z,10.73
2023-05-09T06:57:17.787Z,11.32
2023-05-09T06:59:45.087Z,10.70
2023-05-09T07:02:12.424Z,10.55
2023-05-09T07:04:39.759Z,11.07
2023-05-09T07:07:07.559Z,11.30
2023-05-09T07:09:35.029Z,10.93
2023-05-09T07:12:02.372Z,10.48
2023-05-09T07:14:29.754Z,11.10
2023-05-09T07:17:10.296Z,10.98
2023-05-09T07:19:47.582Z,11.18
2023-05-09T07:22:15.018Z,10.82
2023-05-09T07:24:44.292Z,11.25
2023-05-09T07:27:11.638Z,10.10
2023-05-09T07:29:39.029Z,11.15
2023-05-09T07:32:06.729Z,10.35
2023-05-09T07:34:34.266Z,10.25
2023-05-09T07:37:01.619Z,9.80
2023-05-09T07:39:29.027Z,10.15
2023-05-09T07:41:56.381Z,11.10
2023-05-09T07:44:23.740Z,10.30
2023-05-09T07:46:51.140Z,9.73
2023-05-09T07:49:18.516Z,10.00
2023-05-09T07:51:45.899Z,10.73
2023-05-09T07:54:13.579Z,10.55
2023-05-09T07:56:41.091Z,10.75
2023-05-09T07:59:08.590Z,10.27
2023-05-09T08:01:36.132Z,9.82
2023-05-09T08:04:05.505Z,10.60
2023-05-09T08:06:33.157Z,10.20
2023-05-09T08:09:00.726Z,10.30
2023-05-09T08:11:28.231Z,10.50
2023-05-09T08:13:55.615Z,10.60
2023-05-09T08:16:24.003Z,9.82
2023-05-09T08:18:55.780Z,9.38
2023-05-09T08:21:23.190Z,10.05
2023-05-09T08:23:50.547Z,9.38
2023-05-09T08:26:17.890Z,9.05
2023-05-09T08:28:45.528Z,8.77
2023-05-09T08:31:12.856Z,8.50
2023-05-09T08:33:41.965Z,8.77
2023-05-09T08:36:09.529Z,8.02
2023-05-09T08:38:39.173Z,8.65
2023-05-09T08:41:06.629Z,8.60
2023-05-09T08:43:34.504Z,7.97
2023-05-09T08:46:10.299Z,7.90
2023-05-09T08:48:38.841Z,8.02
2023-05-09T08:51:07.745Z,8.02
2023-05-09T08:53:35.503Z,7.68
2023-05-09T08:56:04.200Z,8.10
2023-05-09T08:58:31.938Z,7.72
2023-05-09T09:01:01.460Z,7.57
2023-05-09T09:03:29.653Z,7.72
2023-05-09T09:05:58.089Z,7.95
2023-05-09T09:08:27.590Z,8.13
2023-05-09T09:10:55.456Z,7.68
2023-05-09T09:13:23.329Z,7.80
2023-05-09T09:15:54.097Z,8.27
2023-05-09T09:18:23.896Z,8.38
2023-05-09T09:20:59.650Z,7.90
2023-05-09T09:23:28.953Z,8.02
2023-05-09T09:26:01.617Z,7.57
2023-05-09T09:28:29.512Z,8.05
2023-05-09T09:30:57.323Z,7.57
2023-05-09T09:33:26.906Z,7.95
2023-05-09T09:35:55.798Z,7.43
2023-05-09T09:38:24.531Z,7.32
2023-05-09T09:40:51.929Z,7.32
2023-05-09T09:43:19.777Z,7.40
2023-05-09T09:45:51.499Z,7.10
2023-05-09T09:48:19.114Z,6.50
2023-05-09T09:50:48.435Z,7.60
2023-05-09T09:53:16.270Z,7.13
2023-05-09T09:55:53.674Z,7.55
2023-05-09T09:58:25.523Z,7.45
2023-05-09T10:01:07.317Z,6.97
2023-05-09T10:03:39.554Z,6.85
2023-05-09T10:06:12.002Z,7.05
2023-05-09T10:08:46.754Z,6.10
2023-05-09T10:11:14.961Z,6.40
2023-05-09T10:13:43.674Z,5.63
2023-05-09T10:16:12.903Z,6.78
2023-05-09T10:18:42.572Z,5.72
2023-05-09T10:21:14.485Z,6.30
2023-05-09T10:23:45.740Z,5.88
2023-05-09T10:26:29.099Z,5.68
2023-05-09T10:28:58.065Z,5.82
2023-05-09T10:31:32.123Z,5.78
2023-05-09T10:34:05.451Z,5.57
2023-05-09T10:36:33.218Z,6.07
2023-05-09T10:39:02.022Z,5.53
2023-05-09T10:41:29.550Z,6.03
2023-05-09T10:43:59.088Z,5.78
2023-05-09T10:46:27.560Z,6.00
2023-05-09T10:48:55.785Z,6.18
2023-05-09T10:51:24.701Z,6.28
2023-05-09T10:53:52.147Z,6.18
2023-05-09T10:56:33.562Z,6.47
2023-05-09T10:59:01.683Z,6.13
2023-05-09T11:01:31.037Z,6.10
2023-05-09T11:04:00.036Z,6.10
2023-05-09T11:06:51.159Z,6.25
2023-05-09T11:09:39.908Z,6.88
2023-05-09T11:12:21.013Z,5.88
2023-05-09T11:14:51.645Z,6.75
2023-05-09T11:17:22.154Z,6.75
2023-05-09T11:19:49.518Z,6.88
2023-05-09T11:22:26.230Z,6.65
2023-05-09T11:25:25.219Z,6.78
2023-05-09T11:27:57.813Z,6.85
2023-05-09T11:30:44.084Z,6.63
2023-05-09T11:33:25.153Z,6.47
2023-05-09T11:36:29.236Z,6.68
2023-05-09T11:39:08.132Z,6.65
2023-05-09T11:41:42.788Z,6.68
2023-05-09T11:44:16.529Z,6.40
2023-05-09T11:46:45.042Z,6.93
2023-05-09T11:49:12.823Z,6.43
2023-05-09T11:51:40.463Z,6.28
2023-05-09T11:54:09.070Z,6.82
2023-05-09T11:56:38.357Z,6.15
2023-05-09T11:59:06.565Z,6.35
2023-05-09T12:01:33.955Z,5.88
2023-05-09T12:04:02.322Z,6.63
2023-05-09T12:06:30.034Z,6.60
2023-05-09T12:08:57.959Z,7.07
2023-05-09T12:11:25.388Z,6.47
2023-05-09T12:13:53.107Z,6.57
2023-05-09T12:16:21.360Z,6.88
2023-05-09T12:18:52.980Z,6.65
2023-05-09T12:21:21.694Z,7.25
2023-05-09T12:23:55.645Z,5.97
2023-05-09T12:26:23.444Z,5.68
2023-05-09T12:28:51.868Z,5.72
2023-05-09T12:31:19.490Z,6.10
2023-05-09T12:33:46.917Z,6.50
2023-05-09T12:36:16.216Z,6.50
2023-05-09T12:38:54.420Z,6.65
2023-05-09T12:43:57.714Z,6.28
2023-05-09T12:46:25.673Z,6.18
2023-05-09T12:48:54.634Z,5.85
2023-05-09T12:51:22.729Z,6.18
2023-05-09T12:53:50.166Z,5.57
2023-05-09T12:56:19.340Z,5.53
2023-05-09T12:58:51.836Z,5.63
2023-05-09T13:01:20.693Z,5.88
2023-05-09T13:04:04.385Z,5.07
2023-05-09T13:06:32.292Z,6.28
2023-05-09T13:09:05.784Z,5.22
2023-05-09T13:11:33.153Z,5.50
2023-05-09T13:14:02.283Z,5.85
2023-05-09T13:16:29.806Z,6.10
2023-05-09T13:18:57.268Z,6.28
2023-05-09T13:21:24.702Z,5.88
2023-05-09T13:23:52.119Z,5.28
2023-05-09T13:26:19.698Z,5.68
2023-05-09T13:28:47.135Z,5.18
2023-05-09T13:31:14.704Z,4.63
2023-05-09T13:33:42.128Z,5.63
2023-05-09T13:36:09.724Z,4.97
2023-05-09T13:38:40.470Z,4.90
2023-05-09T13:41:08.546Z,5.15
2023-05-09T13:43:37.111Z,5.05
2023-05-09T13:46:04.569Z,5.13
2023-05-09T13:48:32.094Z,5.25
2023-05-09T13:51:01.157Z,5.15
2023-05-09T13:53:28.484Z,5.65
2023-05-09T13:55:55.916Z,5.60
2023-05-09T13:58:23.308Z,5.68
2023-05-09T14:00:50.661Z,5.22
2023-05-09T14:03:18.097Z,5.32
2023-05-09T14:05:45.585Z,5.10
2023-05-09T14:08:12.948Z,4.68
2023-05-09T14:10:40.277Z,5.13
2023-05-09T14:13:08.408Z,4.95
2023-05-09T14:15:35.940Z,5.47
2023-05-09T14:18:03.527Z,5.53
2023-05-09T14:20:31.026Z,5.18
2023-05-09T14:23:00.704Z,4.95
2023-05-09T14:25:28.228Z,5.00
2023-05-09T14:27:55.542Z,5.22
2023-05-09T14:30:23.128Z,5.47
2023-05-09T14:32:51.167Z,4.60
2023-05-09T14:35:18.714Z,4.72
2023-05-09T14:37:46.502Z,4.88
2023-05-09T14:40:14.778Z,5.13
2023-05-09T14:42:42.468Z,5.28
2023-05-09T14:45:12.688Z,4.97
2023-05-09T14:47:41.236Z,5.07
2023-05-09T14:50:11.386Z,5.38
2023-05-09T14:52:38.687Z,4.50
2023-05-09T14:55:07.383Z,5.47
2023-05-09T14:57:34.790Z,5.00
2023-05-09T15:00:16.648Z,4.93
2023-05-09T15:02:47.430Z,5.03
2023-05-09T15:05:15.090Z,4.80
2023-05-09T15:07:42.495Z,4.72
2023-05-09T15:10:10.324Z,4.75
2023-05-09T15:12:37.781Z,4.53
2023-05-09T15:15:16.949Z,4.50
2023-05-09T15:17:45.136Z,4.35
2023-05-09T15:20:15.248Z,4.18
2023-05-09T15:22:43.339Z,3.75
2023-05-09T15:25:13.813Z,4.18
2023-05-09T15:27:41.248Z,3.70
2023-05-09T15:30:09.982Z,3.63
2023-05-09T15:32:39.854Z,3.80
2023-05-09T15:35:08.444Z,4.05
2023-05-09T15:37:36.429Z,3.90
2023-05-09T15:40:04.259Z,4.10
2023-05-09T15:42:31.690Z,3.95
2023-05-09T15:44:59.115Z,4.38
2023-05-09T15:47:26.576Z,5.22
2023-05-09T15:49:53.897Z,4.70
2023-05-09T15:52:21.428Z,4.55
2023-05-09T15:54:48.755Z,5.05
2023-05-09T15:57:17.569Z,5.05
2023-05-09T15:59:44.966Z,5.00
2023-05-09T16:02:12.564Z,5.57
2023-05-09T16:04:43.979Z,4.78
2023-05-09T16:07:11.984Z,5.03
2023-05-09T16:09:39.317Z,5.32
2023-05-09T16:12:07.469Z,5.78
2023-05-09T16:14:34.891Z,5.45
2023-05-09T16:17:04.895Z,5.85
2023-05-09T16:19:33.657Z,5.95
2023-05-09T16:22:02.398Z,5.93
2023-05-09T16:24:31.774Z,5.68
2023-05-09T16:26:59.267Z,5.50
2023-05-09T16:29:28.410Z,6.78
2023-05-09T16:31:56.053Z,6.90
2023-05-09T16:34:23.559Z,6.22
2023-05-09T16:36:52.288Z,6.45
2023-05-09T16:39:19.715Z,5.85
2023-05-09T16:41:47.276Z,6.68
2023-05-09T16:44:15.406Z,6.43
2023-05-09T16:46:42.920Z,7.10
2023-05-09T16:49:10.978Z,8.23
2023-05-09T16:51:39.031Z,7.85
2023-05-09T16:54:06.708Z,7.60
2023-05-09T16:56:35.085Z,8.35
2023-05-09T16:59:03.083Z,9.80
2023-05-09T17:01:30.648Z,16.58
2023-05-09T17:03:58.766Z,12.38
2023-05-09T17:06:26.198Z,16.20
2023-05-09T17:08:53.888Z,11.65
2023-05-09T17:11:22.570Z,9.02
2023-05-09T17:13:50.080Z,9.80
2023-05-09T17:16:17.432Z,9.93
2023-05-09T17:18:48.111Z,7.05
2023-05-09T17:21:16.644Z,7.75
2023-05-09T17:23:44.093Z,6.38
2023-05-09T17:26:11.591Z,5.82
2023-05-09T17:28:38.940Z,6.05
2023-05-09T17:31:06.519Z,4.50
2023-05-09T17:33:34.036Z,5.78
2023-05-09T17:36:02.699Z,5.75
2023-05-09T17:38:30.229Z,5.15
2023-05-09T17:40:57.663Z,4.32
2023-05-09T17:43:25.301Z,4.90
2023-05-09T17:45:52.743Z,4.47
2023-05-09T17:48:20.439Z,4.00
2023-05-09T17:50:47.744Z,4.07
2023-05-09T17:53:15.246Z,3.92
2023-05-09T17:55:43.080Z,4.10
2023-05-09T17:58:10.551Z,4.25
2023-05-09T18:00:37.963Z,4.55
2023-05-09T18:03:05.356Z,4.10
2023-05-09T18:05:32.804Z,4.10
2023-05-09T18:08:01.121Z,3.92
2023-05-09T18:10:29.024Z,4.13
2023-05-09T18:12:56.685Z,4.30
2023-05-09T18:15:26.149Z,4.93
2023-05-09T18:17:54.721Z,5.32
2023-05-09T18:20:22.224Z,4.88
2023-05-09T18:22:49.567Z,4.97
2023-05-09T18:25:17.276Z,4.60
2023-05-09T18:27:44.653Z,5.03
2023-05-09T18:30:12.513Z,4.80
2023-05-09T18:32:40.872Z,4.75
2023-05-09T18:35:08.905Z,4.68
2023-05-09T18:37:36.914Z,4.95
2023-05-09T18:40:05.481Z,5.25
2023-05-09T18:42:32.963Z,5.30
2023-05-09T18:45:00.999Z,5.75
2023-05-09T18:47:28.458Z,5.38
2023-05-09T18:49:55.839Z,5.20
2023-05-09T18:52:23.214Z,5.28
2023-05-09T18:54:50.552Z,4.85
2023-05-09T18:57:19.180Z,5.18
2023-05-09T18:59:46.706Z,4.40
2023-05-09T19:02:14.120Z,4.65
2023-05-09T19:04:41.607Z,5.03
2023-05-09T19:07:10.130Z,4.82
2023-05-09T19:09:37.613Z,5.47
2023-05-09T19:12:05.791Z,5.20
2023-05-09T19:14:33.250Z,5.05
2023-05-09T19:17:04.399Z,4.70
2023-05-09T19:19:31.912Z,4.80
2023-05-09T19:22:00.033Z,4.40
2023-05-09T19:24:27.758Z,4.32
2023-05-09T19:26:55.336Z,4.20
2023-05-09T19:29:22.798Z,4.07
2023-05-09T19:31:50.470Z,3.58
2023-05-09T19:34:18.119Z,3.30
2023-05-09T19:36:45.526Z,3.30
2023-05-09T19:39:13.422Z,2.70
2023-05-09T19:41:41.601Z,2.83
2023-05-09T19:44:09.218Z,3.35
2023-05-09T19:46:38.287Z,3.65
2023-05-09T19:49:06.205Z,3.35
2023-05-09T19:51:33.753Z,3.70
2023-05-09T19:54:01.171Z,4.68
2023-05-09T19:56:28.520Z,3.90
2023-05-09T19:58:55.952Z,4.43
2023-05-09T20:01:23.410Z,4.50
2023-05-09T20:03:52.332Z,4.00
2023-05-09T20:06:20.171Z,4.60
2023-05-09T20:08:51.317Z,4.57
2023-05-09T20:11:18.918Z,4.45
2023-05-09T20:13:46.364Z,5.43
2023-05-09T20:16:14.046Z,4.63
2023-05-09T20:18:41.509Z,5.22
2023-05-09T20:21:10.365Z,5.75
2023-05-09T20:23:39.496Z,5.65
2023-05-09T20:26:06.948Z,5.97
2023-05-09T20:28:34.408Z,6.38
2023-05-09T20:31:01.866Z,6.10
2023-05-09T20:33:29.710Z,5.95
2023-05-09T20:35:57.040Z,6.35
2023-05-09T20:38:24.551Z,6.53
2023-05-09T20:40:51.886Z,6.30
2023-05-09T20:43:19.792Z,6.70
2023-05-09T20:45:47.245Z,6.10
2023-05-09T20:48:14.896Z,5.88
2023-05-09T20:50:42.229Z,5.72
2023-05-09T20:53:09.602Z,6.70
2023-05-09T20:55:36.933Z,6.50
2023-05-09T20:58:04.298Z,6.20
2023-05-09T21:00:32.862Z,6.95
2023-05-09T21:03:00.530Z,6.93
2023-05-09T21:05:27.953Z,6.93
2023-05-09T21:07:55.308Z,6.95
2023-05-09T21:10:22.785Z,6.90
2023-05-09T21:12:50.175Z,8.27
2023-05-09T21:15:17.674Z,7.40
2023-05-09T21:17:45.110Z,7.55
2023-05-09T21:20:12.751Z,7.65
2023-05-09T21:22:40.173Z,7.53
2023-05-09T21:25:07.910Z,7.95
2023-05-09T21:27:35.311Z,9.68
2023-05-09T21:30:02.751Z,10.10
2023-05-09T21:32:30.195Z,9.90
2023-05-09T21:34:57.533Z,9.48
2023-05-09T21:37:24.923Z,9.38
2023-05-09T21:39:52.254Z,10.35
2023-05-09T21:42:19.577Z,10.20
2023-05-09T21:44:46.906Z,10.95
2023-05-09T21:47:14.522Z,11.15
2023-05-09T21:49:42.004Z,11.35
2023-05-09T21:52:09.341Z,11.40
2023-05-09T21:54:36.786Z,11.45
2023-05-09T21:57:05.444Z,12.60
2023-05-09T21:59:34.298Z,12.40
2023-05-09T22:02:01.682Z,12.63
2023-05-09T22:04:29.071Z,12.88
2023-05-09T22:06:56.450Z,12.48
2023-05-09T22:09:23.826Z,12.45
2023-05-09T22:11:52.818Z,12.55
2023-05-09T22:14:20.165Z,13.30
2023-05-09T22:16:47.712Z,12.82
2023-05-09T22:19:15.153Z,12.93
2023-05-09T22:21:42.543Z,13.32
2023-05-09T22:24:09.936Z,15.30
2023-05-09T22:26:37.261Z,13.77
2023-05-09T22:29:04.645Z,15.77
2023-05-09T22:31:31.995Z,14.68
2023-05-09T22:33:59.356Z,15.20
2023-05-09T22:36:27.098Z,15.82
2023-05-09T22:38:54.519Z,15.35
2023-05-09T22:41:22.768Z,15.70
2023-05-09T22:43:50.138Z,15.90
2023-05-09T22:46:17.494Z,17.30
2023-05-09T22:48:44.819Z,15.40
2023-05-09T22:51:12.296Z,15.10
2023-05-09T22:53:40.031Z,15.80
2023-05-09T22:56:09.319Z,17.33
2023-05-09T22:58:36.665Z,15.82
2023-05-09T23:01:04.099Z,17.08
2023-05-09T23:03:31.977Z,16.95
2023-05-09T23:05:59.333Z,16.52
2023-05-09T23:08:26.644Z,16.02
2023-05-09T23:10:54.047Z,17.75
2023-05-09T23:13:21.486Z,16.90
2023-05-09T23:15:48.910Z,17.95
2023-05-09T23:18:16.276Z,17.75
2023-05-09T23:20:45.146Z,17.42
2023-05-09T23:23:12.511Z,19.25
2023-05-09T23:25:40.057Z,20.00
2023-05-09T23:28:08.048Z,17.95
2023-05-09T23:30:35.523Z,17.65
2023-05-09T23:33:03.287Z,18.05
2023-05-09T23:35:30.698Z,17.90
2023-05-09T23:37:58.043Z,18.20
2023-05-09T23:40:25.316Z,18.08
2023-05-09T23:42:52.682Z,19.38
2023-05-09T23:45:20.116Z,19.05
2023-05-09T23:47:47.483Z,18.08
2023-05-09T23:50:15.140Z,18.77
2023-05-09T23:52:42.684Z,18.30
2023-05-09T23:55:10.183Z,18.95
2023-05-09T23:57:37.525Z,16.88
